createdAt,value
2018-03-15T00:00:09.287Z,20.80
2018-03-15T00:02:37.712Z,21.00
2018-03-15T00:05:05.348Z,20.33
2018-03-15T00:07:32.977Z,21.03
2018-03-15T00:10:00.609Z,19.63
2018-03-15T00:12:28.232Z,20.97
2018-03-15T00:14:55.858Z,18.93
2018-03-15T00:17:23.485Z,18.57
2018-03-15T00:19:51.130Z,22.07
2018-03-15T00:22:18.934Z,19.67
2018-03-15T00:24:46.967Z,19.03
2018-03-15T00:27:14.637Z,19.13
2018-03-15T00:29:42.260Z,21.07
2018-03-15T00:32:09.897Z,20.87
2018-03-15T00:34:37.521Z,21.03
2018-03-15T00:37:05.180Z,20.30
2018-03-15T00:39:32.792Z,19.43
2018-03-15T00:42:00.436Z,19.83
2018-03-15T00:44:28.056Z,21.07
2018-03-15T00:46:55.677Z,22.67
2018-03-15T00:49:23.300Z,19.10
2018-03-15T00:51:50.948Z,20.53
2018-03-15T00:54:19.328Z,19.33
2018-03-15T00:56:47.716Z,20.13
2018-03-15T00:59:15.356Z,21.03
2018-03-15T01:01:42.984Z,19.47
2018-03-15T01:04:10.609Z,23.03
2018-03-15T01:06:38.993Z,21.93
2018-03-15T01:09:06.624Z,22.17
2018-03-15T01:11:34.248Z,19.93
2018-03-15T01:14:01.890Z,21.00
2018-03-15T01:16:30.276Z,20.83
2018-03-15T01:18:57.901Z,19.43
2018-03-15T01:21:25.541Z,19.50
2018-03-15T01:23:53.189Z,21.43
2018-03-15T01:26:21.148Z,20.33
2018-03-15T01:28:49.528Z,21.90
2018-03-15T01:31:17.168Z,22.23
2018-03-15T01:33:44.800Z,21.10
2018-03-15T01:36:12.451Z,20.60
2018-03-15T01:38:40.224Z,18.63
2018-03-15T01:41:07.848Z,18.07
2018-03-15T01:43:36.245Z,20.97
2018-03-15T01:46:03.873Z,18.73
2018-03-15T01:48:31.532Z,19.77
2018-03-15T01:50:59.164Z,19.63
2018-03-15T01:53:26.781Z,20.33
2018-03-15T01:55:54.405Z,19.70
2018-03-15T01:58:22.044Z,20.90
2018-03-15T02:00:50.488Z,20.13
2018-03-15T02:03:18.121Z,21.67
2018-03-15T02:05:45.743Z,22.40
2018-03-15T02:08:14.137Z,21.43
2018-03-15T02:10:41.765Z,23.17
2018-03-15T02:13:09.401Z,23.20
2018-03-15T02:15:37.024Z,23.23
2018-03-15T02:18:05.418Z,23.60
2018-03-15T02:20:33.811Z,24.77
2018-03-15T02:23:01.448Z,24.60
2018-03-15T02:25:29.073Z,23.07
2018-03-15T02:27:56.712Z,21.90
2018-03-15T02:30:24.332Z,22.20
2018-03-15T02:32:51.993Z,21.63
2018-03-15T02:35:19.733Z,23.10
2018-03-15T02:37:47.241Z,21.30
2018-03-15T02:40:14.868Z,21.97
2018-03-15T02:42:42.497Z,21.73
2018-03-15T02:45:10.900Z,19.97
2018-03-15T02:47:38.534Z,20.33
2018-03-15T02:50:06.165Z,23.57
2018-03-15T02:52:33.786Z,22.23
2018-03-15T02:55:02.464Z,21.93
2018-03-15T02:57:30.862Z,21.77
2018-03-15T02:59:58.497Z,22.93
2018-03-15T03:02:26.118Z,21.40
2018-03-15T03:04:53.752Z,22.37
2018-03-15T03:07:21.381Z,20.93
2018-03-15T03:09:49.002Z,21.57
2018-03-15T03:12:16.624Z,21.23
2018-03-15T03:14:44.245Z,20.17
2018-03-15T03:17:11.877Z,22.37
2018-03-15T03:19:40.283Z,21.80
2018-03-15T03:22:07.913Z,20.97
2018-03-15T03:24:35.538Z,21.53
2018-03-15T03:27:03.165Z,23.47
2018-03-15T03:29:30.801Z,20.83
2018-03-15T03:31:58.425Z,20.00
2018-03-15T03:34:26.053Z,19.97
2018-03-15T03:36:54.444Z,21.63
2018-03-15T03:39:22.073Z,21.30
2018-03-15T03:41:49.703Z,18.73
2018-03-15T03:44:17.329Z,20.23
2018-03-15T03:46:45.732Z,19.20
2018-03-15T03:49:14.116Z,19.17
2018-03-15T03:51:41.752Z,18.60
2018-03-15T03:54:09.373Z,22.33
2018-03-15T03:56:37.021Z,21.60
2018-03-15T03:59:04.632Z,20.50
2018-03-15T04:01:32.264Z,20.00
2018-03-15T04:03:59.901Z,19.67
2018-03-15T04:06:28.284Z,18.63
2018-03-15T04:08:56.677Z,19.57
2018-03-15T04:11:24.316Z,20.20
2018-03-15T04:13:51.925Z,18.53
2018-03-15T04:16:19.548Z,17.53
2018-03-15T04:18:47.225Z,20.60
2018-03-15T04:21:15.612Z,22.03
2018-03-15T04:23:44.008Z,22.83
2018-03-15T04:26:11.637Z,20.43
2018-03-15T04:28:39.260Z,20.00
2018-03-15T04:31:06.901Z,20.63
2018-03-15T04:33:34.532Z,21.47
2018-03-15T04:36:02.155Z,20.70
2018-03-15T04:38:29.788Z,20.20
2018-03-15T04:40:58.190Z,21.23
2018-03-15T04:43:25.824Z,18.70
2018-03-15T04:45:53.472Z,20.37
2018-03-15T04:48:22.618Z,19.33
2018-03-15T04:50:50.253Z,21.77
2018-03-15T04:53:17.872Z,21.07
2018-03-15T04:55:45.501Z,19.77
2018-03-15T04:58:13.888Z,19.60
2018-03-15T05:00:42.286Z,17.43
2018-03-15T05:03:10.669Z,24.12
2018-03-15T05:05:38.576Z,20.50
2018-03-15T05:08:06.201Z,20.40
2018-03-15T05:10:34.600Z,19.60
2018-03-15T05:13:02.224Z,19.70
2018-03-15T05:15:29.872Z,21.17
2018-03-15T05:17:57.502Z,20.93
2018-03-15T05:20:25.525Z,21.47
2018-03-15T05:22:53.177Z,20.73
2018-03-15T05:25:20.781Z,18.63
2018-03-15T05:27:49.192Z,19.13
2018-03-15T05:30:16.864Z,20.23
2018-03-15T05:32:44.547Z,19.03
2018-03-15T05:35:12.925Z,19.70
2018-03-15T05:37:40.552Z,19.20
2018-03-15T05:40:08.943Z,19.63
2018-03-15T05:42:36.564Z,19.17
2018-03-15T05:45:04.232Z,19.20
2018-03-15T05:47:31.848Z,18.77
2018-03-15T05:49:59.493Z,19.53
2018-03-15T05:52:27.896Z,19.33
2018-03-15T05:54:55.533Z,20.57
2018-03-15T05:57:23.191Z,19.67
2018-03-15T05:59:50.812Z,19.13
2018-03-15T06:02:18.468Z,19.33
2018-03-15T06:04:46.096Z,19.57
2018-03-15T06:07:13.801Z,19.27
2018-03-15T06:09:41.433Z,19.13
2018-03-15T06:12:09.828Z,20.70
2018-03-15T06:14:38.222Z,18.70
2018-03-15T06:17:06.601Z,18.30
2018-03-15T06:19:34.245Z,17.73
2018-03-15T06:22:01.905Z,18.73
2018-03-15T06:24:29.532Z,17.33
2018-03-15T06:26:57.156Z,17.73
2018-03-15T06:29:25.579Z,18.07
2018-03-15T06:31:53.933Z,19.80
2018-03-15T06:34:22.326Z,18.20
2018-03-15T06:36:49.953Z,18.27
2018-03-15T06:39:17.594Z,19.07
2018-03-15T06:41:45.216Z,17.67
2018-03-15T06:44:12.872Z,17.67
2018-03-15T06:46:40.474Z,17.70
2018-03-15T06:49:08.088Z,19.03
2018-03-15T06:51:35.729Z,18.03
2018-03-15T06:54:03.344Z,16.33
2018-03-15T06:56:30.976Z,17.43
2018-03-15T06:58:58.610Z,17.40
2018-03-15T07:01:26.224Z,19.23
2018-03-15T07:03:54.612Z,17.20
2018-03-15T07:06:23.039Z,17.60
2018-03-15T07:08:50.644Z,17.00
2018-03-15T07:11:18.312Z,17.93
2018-03-15T07:13:45.932Z,17.00
2018-03-15T07:16:13.569Z,16.90
2018-03-15T07:18:41.199Z,18.43
2018-03-15T07:21:08.813Z,15.53
2018-03-15T07:23:36.460Z,17.67
2018-03-15T07:26:04.860Z,15.27
2018-03-15T07:28:32.488Z,15.87
2018-03-15T07:31:00.881Z,15.70
2018-03-15T07:33:28.570Z,15.60
2018-03-15T07:35:56.205Z,16.40
2018-03-15T07:38:23.833Z,15.20
2018-03-15T07:40:51.459Z,16.67
2018-03-15T07:43:19.930Z,16.30
2018-03-15T07:45:47.529Z,15.43
2018-03-15T07:48:15.153Z,14.37
2018-03-15T07:50:42.783Z,14.83
2018-03-15T07:53:10.431Z,15.53
2018-03-15T07:55:38.059Z,14.80
2018-03-15T07:58:05.716Z,14.50
2018-03-15T08:00:33.376Z,16.37
2018-03-15T08:03:00.994Z,15.80
2018-03-15T08:05:28.629Z,15.03
2018-03-15T08:07:56.252Z,14.30
2018-03-15T08:10:23.872Z,15.40
2018-03-15T08:12:52.264Z,14.37
2018-03-15T08:15:20.656Z,14.83
2018-03-15T08:17:48.276Z,13.77
2018-03-15T08:20:16.183Z,14.40
2018-03-15T08:22:44.577Z,13.10
2018-03-15T08:25:13.084Z,13.67
2018-03-15T08:27:40.704Z,14.40
2018-03-15T08:30:09.216Z,13.87
2018-03-15T08:32:36.843Z,12.90
2018-03-15T08:35:05.976Z,12.60
2018-03-15T08:37:33.657Z,14.07
2018-03-15T08:40:01.281Z,13.93
2018-03-15T08:42:28.925Z,13.43
2018-03-15T08:44:56.552Z,12.80
2018-03-15T08:47:24.185Z,13.40
2018-03-15T08:49:52.593Z,13.17
2018-03-15T08:52:20.352Z,13.00
2018-03-15T08:54:48.344Z,13.10
2018-03-15T08:57:15.981Z,12.77
2018-03-15T08:59:43.613Z,12.83
2018-03-15T09:02:11.271Z,12.17
2018-03-15T09:04:39.412Z,11.90
2018-03-15T09:07:07.303Z,12.40
2018-03-15T09:09:35.644Z,10.40
2018-03-15T09:12:04.038Z,10.27
2018-03-15T09:14:31.662Z,12.20
2018-03-15T09:16:59.310Z,10.13
2018-03-15T09:19:26.920Z,7.77
2018-03-15T09:21:54.541Z,7.17
2018-03-15T09:24:22.164Z,7.10
2018-03-15T09:26:50.557Z,8.73
2018-03-15T09:29:18.993Z,9.03
2018-03-15T09:31:46.621Z,10.30
2018-03-15T09:34:14.264Z,9.83
2018-03-15T09:36:42.713Z,10.87
2018-03-15T09:39:10.345Z,10.17
2018-03-15T09:41:37.984Z,9.17
2018-03-15T09:44:06.376Z,8.40
2018-03-15T09:46:34.265Z,8.93
2018-03-15T09:49:01.891Z,8.13
2018-03-15T09:51:29.517Z,7.83
2018-03-15T09:53:57.138Z,7.60
2018-03-15T09:56:25.529Z,7.20
2018-03-15T09:58:53.158Z,6.60
2018-03-15T10:01:20.793Z,7.23
2018-03-15T10:03:48.441Z,7.00
2018-03-15T10:06:16.407Z,6.80
2018-03-15T10:08:44.042Z,6.30
2018-03-15T10:11:11.664Z,6.90
2018-03-15T10:13:39.300Z,7.10
2018-03-15T10:16:06.925Z,7.10
2018-03-15T10:18:34.549Z,6.90
2018-03-15T10:21:02.172Z,6.90
2018-03-15T10:23:29.805Z,6.77
2018-03-15T10:25:57.432Z,7.13
2018-03-15T10:28:25.057Z,6.73
2018-03-15T10:30:52.689Z,6.43
2018-03-15T10:33:20.310Z,7.00
2018-03-15T10:35:48.713Z,5.87
2018-03-15T10:38:16.857Z,6.67
2018-03-15T10:40:44.476Z,7.90
2018-03-15T10:43:12.099Z,7.30
2018-03-15T10:45:40.493Z,6.60
2018-03-15T10:48:08.883Z,5.80
2018-03-15T10:50:36.548Z,5.73
2018-03-15T10:53:05.096Z,5.20
2018-03-15T10:55:32.703Z,6.17
2018-03-15T10:58:00.324Z,5.50
2018-03-15T11:00:28.005Z,5.23
2018-03-15T11:02:55.625Z,5.43
2018-03-15T11:05:23.285Z,4.73
2018-03-15T11:07:51.664Z,5.40
2018-03-15T11:10:19.293Z,5.27
2018-03-15T11:12:46.977Z,5.10
2018-03-15T11:15:14.572Z,5.20
2018-03-15T11:17:42.203Z,5.60
2018-03-15T11:20:10.623Z,4.83
2018-03-15T11:22:38.252Z,5.37
2018-03-15T11:25:06.641Z,5.03
2018-03-15T11:27:34.537Z,4.57
2018-03-15T11:30:02.281Z,5.30
2018-03-15T11:32:29.841Z,5.40
2018-03-15T11:34:58.242Z,5.40
2018-03-15T11:37:25.921Z,4.80
2018-03-15T11:39:53.545Z,5.00
2018-03-15T11:42:21.221Z,5.13
2018-03-15T11:44:49.615Z,5.63
2018-03-15T11:47:18.000Z,4.83
2018-03-15T11:49:46.388Z,4.63
2018-03-15T11:52:14.017Z,4.93
2018-03-15T11:54:42.028Z,4.90
2018-03-15T11:57:10.011Z,4.77
2018-03-15T11:59:37.637Z,4.83
2018-03-15T12:02:05.267Z,4.80
2018-03-15T12:04:32.898Z,4.60
2018-03-15T12:07:00.551Z,4.60
2018-03-15T12:09:28.440Z,4.87
2018-03-15T12:11:56.824Z,5.00
2018-03-15T12:14:25.480Z,4.50
2018-03-15T12:16:54.191Z,4.40
2018-03-15T12:19:22.681Z,4.37
2018-03-15T12:21:50.659Z,4.67
2018-03-15T12:24:18.525Z,4.13
2018-03-15T12:26:46.935Z,4.37
2018-03-15T12:29:14.891Z,4.33
2018-03-15T12:31:42.511Z,4.77
2018-03-15T12:34:10.149Z,4.47
2018-03-15T12:36:37.759Z,3.83
2018-03-15T12:39:06.148Z,4.50
2018-03-15T12:41:34.547Z,3.60
2018-03-15T12:44:02.940Z,3.97
2018-03-15T12:46:30.566Z,4.50
2018-03-15T12:48:58.181Z,4.27
2018-03-15T12:51:25.800Z,4.30
2018-03-15T12:53:53.444Z,3.73
2018-03-15T12:56:21.149Z,3.97
2018-03-15T12:58:48.794Z,4.17
2018-03-15T13:01:16.412Z,4.10
2018-03-15T13:03:44.032Z,4.27
2018-03-15T13:06:11.652Z,3.77
2018-03-15T13:08:39.281Z,4.40
2018-03-15T13:11:07.659Z,4.20
2018-03-15T13:13:36.048Z,3.97
2018-03-15T13:16:04.440Z,4.30
2018-03-15T13:18:32.067Z,3.80
2018-03-15T13:20:59.692Z,4.10
2018-03-15T13:23:27.316Z,3.37
2018-03-15T13:25:55.700Z,3.53
2018-03-15T13:28:23.375Z,3.70
2018-03-15T13:30:50.944Z,3.87
2018-03-15T13:33:19.336Z,3.67
2018-03-15T13:35:47.744Z,3.90
2018-03-15T13:38:15.365Z,4.40
2018-03-15T13:40:42.998Z,4.00
2018-03-15T13:43:10.653Z,3.93
2018-03-15T13:45:38.225Z,4.00
2018-03-15T13:48:05.851Z,3.60
2018-03-15T13:50:34.435Z,3.23
2018-03-15T13:53:02.876Z,3.70
2018-03-15T13:55:30.502Z,3.90
2018-03-15T13:57:58.154Z,3.63
2018-03-15T14:00:26.076Z,3.60
2018-03-15T14:02:53.728Z,3.07
2018-03-15T14:05:21.348Z,3.30
2018-03-15T14:07:49.728Z,3.10
2018-03-15T14:10:18.113Z,4.20
2018-03-15T14:12:46.514Z,3.37
2018-03-15T14:15:14.893Z,3.20
2018-03-15T14:17:42.609Z,3.03
2018-03-15T14:20:10.196Z,3.33
2018-03-15T14:22:37.816Z,3.20
2018-03-15T14:25:05.436Z,3.37
2018-03-15T14:27:33.076Z,3.30
2018-03-15T14:30:00.677Z,3.23
2018-03-15T14:32:29.060Z,3.43
2018-03-15T14:34:57.517Z,3.60
2018-03-15T14:37:25.489Z,3.63
2018-03-15T14:39:53.108Z,3.73
2018-03-15T14:42:20.741Z,3.70
2018-03-15T14:44:49.069Z,3.83
2018-03-15T14:47:16.930Z,3.70
2018-03-15T14:49:44.562Z,3.70
2018-03-15T14:52:12.169Z,3.50
2018-03-15T14:54:39.788Z,3.73
2018-03-15T14:57:07.412Z,4.37
2018-03-15T14:59:35.044Z,5.50
2018-03-15T15:02:02.726Z,5.03
2018-03-15T15:04:31.097Z,5.40
2018-03-15T15:06:58.745Z,5.73
2018-03-15T15:09:27.147Z,5.80
2018-03-15T15:11:54.772Z,5.57
2018-03-15T15:14:22.398Z,5.57
2018-03-15T15:16:50.021Z,5.20
2018-03-15T15:19:17.649Z,5.53
2018-03-15T15:21:45.272Z,5.37
2018-03-15T15:24:12.898Z,6.43
2018-03-15T15:26:40.516Z,5.90
2018-03-15T15:29:08.137Z,5.33
2018-03-15T15:31:35.752Z,5.63
2018-03-15T15:34:03.405Z,6.07
2018-03-15T15:36:31.033Z,6.17
2018-03-15T15:38:58.684Z,6.50
2018-03-15T15:41:26.308Z,5.57
2018-03-15T15:43:53.953Z,6.00
2018-03-15T15:46:22.341Z,6.37
2018-03-15T15:48:50.728Z,6.20
2018-03-15T15:51:19.118Z,6.60
2018-03-15T15:53:46.740Z,6.50
2018-03-15T15:59:01.457Z,5.80
2018-03-15T16:01:29.085Z,6.50
2018-03-15T16:03:56.712Z,6.47
2018-03-15T16:06:24.340Z,6.60
2018-03-15T16:08:52.782Z,6.33
2018-03-15T16:11:20.389Z,6.50
2018-03-15T16:13:48.009Z,6.93
2018-03-15T16:16:15.638Z,7.57
2018-03-15T16:18:43.258Z,7.37
2018-03-15T16:21:10.884Z,7.57
2018-03-15T16:23:38.517Z,8.07
2018-03-15T16:26:06.915Z,7.07
2018-03-15T16:28:35.297Z,7.17
2018-03-15T16:31:02.929Z,7.77
2018-03-15T16:33:30.550Z,7.67
2018-03-15T16:35:58.205Z,8.10
2018-03-15T16:38:26.564Z,7.33
2018-03-15T16:40:54.961Z,7.03
2018-03-15T16:43:22.588Z,8.87
2018-03-15T16:45:50.220Z,8.33
2018-03-15T16:48:17.935Z,8.20
2018-03-15T16:50:45.697Z,8.50
2018-03-15T16:53:13.363Z,8.93
2018-03-15T16:55:41.010Z,8.77
2018-03-15T16:58:08.692Z,8.10
2018-03-15T17:00:36.338Z,8.73
2018-03-15T17:03:03.993Z,7.73
2018-03-15T17:05:31.634Z,8.13
2018-03-15T17:07:59.268Z,8.63
2018-03-15T17:10:28.401Z,8.40
2018-03-15T17:12:56.058Z,8.23
2018-03-15T17:15:24.445Z,8.17
2018-03-15T17:17:52.881Z,9.10
2018-03-15T17:20:20.485Z,8.10
2018-03-15T17:22:48.873Z,7.90
2018-03-15T17:25:16.974Z,8.53
2018-03-15T17:27:44.598Z,8.33
2018-03-15T17:30:12.239Z,8.50
2018-03-15T17:32:39.842Z,8.63
2018-03-15T17:35:08.252Z,9.37
2018-03-15T17:37:36.632Z,9.23
2018-03-15T17:40:04.257Z,8.20
2018-03-15T17:42:31.892Z,9.00
2018-03-15T17:44:59.512Z,9.60
2018-03-15T17:47:27.900Z,11.10
2018-03-15T17:49:55.529Z,10.90
2018-03-15T17:52:23.152Z,12.07
2018-03-15T17:54:50.772Z,11.87
2018-03-15T17:57:18.405Z,13.17
2018-03-15T17:59:46.033Z,13.30
2018-03-15T18:02:13.702Z,14.27
2018-03-15T18:04:41.288Z,14.97
2018-03-15T18:07:08.911Z,15.70
2018-03-15T18:09:36.531Z,15.40
2018-03-15T18:12:04.169Z,14.53
2018-03-15T18:14:31.797Z,16.90
2018-03-15T18:16:59.418Z,16.03
2018-03-15T18:19:27.047Z,16.23
2018-03-15T18:21:55.433Z,16.77
2018-03-15T18:24:23.264Z,17.40
2018-03-15T18:26:50.905Z,16.50
2018-03-15T18:29:19.444Z,17.83
2018-03-15T18:31:47.846Z,16.73
2018-03-15T18:34:15.465Z,18.40
2018-03-15T18:36:43.095Z,18.23
2018-03-15T18:39:10.790Z,17.23
2018-03-15T18:41:38.541Z,18.03
2018-03-15T18:44:06.161Z,18.67
2018-03-15T18:46:34.561Z,17.80
2018-03-15T18:49:02.185Z,17.73
2018-03-15T18:51:30.160Z,17.80
2018-03-15T18:53:57.797Z,17.60
2018-03-15T18:56:25.409Z,18.83
2018-03-15T18:58:53.086Z,18.53
2018-03-15T19:01:20.703Z,19.43
2018-03-15T19:03:49.093Z,19.20
2018-03-15T19:06:16.786Z,19.03
2018-03-15T19:08:44.390Z,19.30
2018-03-15T19:11:13.989Z,20.47
2018-03-15T19:13:41.617Z,20.73
2018-03-15T19:16:09.253Z,21.23
2018-03-15T19:18:36.885Z,21.27
2018-03-15T19:21:05.275Z,21.63
2018-03-15T19:23:33.685Z,21.30
2018-03-15T19:26:01.309Z,21.90
2018-03-15T19:28:29.738Z,21.80
2018-03-15T19:30:57.391Z,23.07
2018-03-15T19:33:25.009Z,23.13
2018-03-15T19:35:53.409Z,22.80
2018-03-15T19:38:21.050Z,21.53
2018-03-15T19:40:48.693Z,22.67
2018-03-15T19:43:16.322Z,23.00
2018-03-15T19:45:58.930Z,21.83
2018-03-15T19:48:26.569Z,22.53
2018-03-15T19:50:54.216Z,22.17
2018-03-15T19:53:21.841Z,23.43
2018-03-15T19:55:49.477Z,22.77
2018-03-15T19:58:17.126Z,21.60
2018-03-15T20:00:45.427Z,21.37
2018-03-15T20:03:13.041Z,24.07
2018-03-15T20:05:40.681Z,22.40
2018-03-15T20:08:08.324Z,23.53
2018-03-15T20:10:35.946Z,23.50
2018-03-15T20:13:03.568Z,22.37
2018-03-15T20:15:31.971Z,23.67
2018-03-15T20:17:59.592Z,24.00
2018-03-15T20:20:28.191Z,24.60
2018-03-15T20:22:56.356Z,24.10
2018-03-15T20:25:23.976Z,24.37
2018-03-15T20:27:51.642Z,23.53
2018-03-15T20:30:19.268Z,25.23
2018-03-15T20:32:46.941Z,23.67
2018-03-15T20:35:14.536Z,23.57
2018-03-15T20:37:42.160Z,23.80
2018-03-15T20:40:09.815Z,24.10
2018-03-15T20:42:37.436Z,23.03
2018-03-15T20:45:05.173Z,22.43
2018-03-15T20:47:33.560Z,24.30
2018-03-15T20:50:01.215Z,23.90
2018-03-15T20:52:29.625Z,23.50
2018-03-15T20:54:58.002Z,22.97
2018-03-15T20:57:25.773Z,23.93
2018-03-15T20:59:53.556Z,24.13
2018-03-15T21:02:21.173Z,25.90
2018-03-15T21:04:48.801Z,24.70
2018-03-15T21:07:16.423Z,24.23
2018-03-15T21:09:44.824Z,24.87
2018-03-15T21:12:12.457Z,25.57
2018-03-15T21:14:40.076Z,26.07
2018-03-15T21:17:07.699Z,25.63
2018-03-15T21:19:35.316Z,26.83
2018-03-15T21:22:02.954Z,27.60
2018-03-15T21:24:30.581Z,26.67
2018-03-15T21:26:58.320Z,28.97
2018-03-15T21:29:25.862Z,27.37
2018-03-15T21:31:53.486Z,27.60
2018-03-15T21:34:21.105Z,30.43
2018-03-15T21:36:48.788Z,29.70
2018-03-15T21:39:16.411Z,29.93
2018-03-15T21:41:44.041Z,29.60
2018-03-15T21:44:11.665Z,28.00
2018-03-15T21:46:39.301Z,29.10
2018-03-15T21:49:07.688Z,31.67
2018-03-15T21:51:36.110Z,33.93
2018-03-15T21:54:03.763Z,35.00
2018-03-15T21:56:31.426Z,34.77
2018-03-15T21:58:59.017Z,32.27
2018-03-15T22:01:26.647Z,34.97
2018-03-15T22:03:55.253Z,35.63
2018-03-15T22:06:22.861Z,35.27
2018-03-15T22:08:50.529Z,38.50
2018-03-15T22:11:18.147Z,35.23
2018-03-15T22:13:45.768Z,35.17
2018-03-15T22:16:13.438Z,34.27
2018-03-15T22:18:41.025Z,38.40
2018-03-15T22:21:08.657Z,39.53
2018-03-15T22:23:36.284Z,38.73
2018-03-15T22:26:03.954Z,39.17
2018-03-15T22:28:31.565Z,38.60
2018-03-15T22:30:59.286Z,36.47
2018-03-15T22:33:26.914Z,39.47
2018-03-15T22:35:55.310Z,37.70
2018-03-15T22:38:22.951Z,41.93
2018-03-15T22:40:50.577Z,38.43
2018-03-15T22:43:18.201Z,40.20
2018-03-15T22:45:46.584Z,38.97
2018-03-15T22:48:14.974Z,39.40
2018-03-15T22:50:42.601Z,38.00
2018-03-15T22:53:10.233Z,39.00
2018-03-15T22:55:37.892Z,41.93
2018-03-15T22:58:06.277Z,40.77
2018-03-15T23:00:33.920Z,39.77
2018-03-15T23:03:01.544Z,36.70
2018-03-15T23:05:29.173Z,36.83
2018-03-15T23:07:56.801Z,39.17
2018-03-15T23:10:24.428Z,38.03
2018-03-15T23:12:52.058Z,39.53
2018-03-15T23:15:20.676Z,39.27
2018-03-15T23:17:48.302Z,38.47
2018-03-15T23:20:15.929Z,40.00
2018-03-15T23:22:43.597Z,40.77
2018-03-15T23:25:11.217Z,39.53
2018-03-15T23:27:38.885Z,41.10
2018-03-15T23:30:06.508Z,42.97
2018-03-15T23:32:34.901Z,41.90
2018-03-15T23:35:03.292Z,39.77
2018-03-15T23:37:31.684Z,38.67
2018-03-15T23:39:59.321Z,40.20
2018-03-15T23:42:26.970Z,40.47
2018-03-15T23:44:54.596Z,40.53
2018-03-15T23:47:22.228Z,38.33
2018-03-15T23:49:49.890Z,43.50
2018-03-15T23:52:17.489Z,43.27
2018-03-15T23:54:45.129Z,42.20
2018-03-15T23:57:12.753Z,40.30
2018-03-15T23:59:40.373Z,42.57
